Time;durP1;ratioP1;P1;durP2;ratioP2;P2;SDS_P1;SDS_P2;PMS_P1;PMS_P2;Temp;Humidity;BMP_temperature;BMP_pressure;BME280_temperature;BME280_humidity;BME280_pressure;Samples;Min_cycle;Max_cycle;Signal;HPM_P1;HPM_P2
2023/02/14 00:00:21;;;;;;;;;;;;;;;;;;2222618;58;1833;-55
2023/02/14 00:02:51;;;;;;;;;;;;;;;;;;2221597;58;2035;-56
2023/02/14 00:05:21;;;;;;;;;;;;;;;;;;2222397;66;1200;-55
2023/02/14 00:07:51;;;;;;;;;;;;;;;;;;2222249;66;1193;-57
2023/02/14 00:10:21;;;;;;;;;;;;;;;;;;2222912;58;1173;-55
2023/02/14 00:12:51;;;;;;;;;;;;;;;;;;2222384;58;1986;-55
2023/02/14 00:15:22;;;;;;;;;;;;;;;;;;2223049;66;1083;-57
2023/02/14 00:17:53;;;;;;;;;;;;;;;;;;2221531;66;1232;-59
2023/02/14 00:20:24;;;;;;;;;;;;;;;;;;2222464;66;1074;-57
2023/02/14 00:22:54;;;;;;;;;;;;;;;;;;2222573;58;2206;-55
2023/02/14 00:25:24;;;;;;;;;;;;;;;;;;2222980;66;1111;-57
2023/02/14 00:27:54;;;;;;;;;;;;;;;;;;2222676;66;1208;-59
2023/02/14 00:30:24;;;;;;;;;;;;;;;;;;2222239;66;1428;-57
2023/02/14 00:32:54;;;;;;;;;;;;;;;;;;2223044;66;1984;-56
2023/02/14 00:35:25;;;;;;;;;;;;;;;;;;2222165;66;1083;-56
2023/02/14 00:37:55;;;;;;;;;;;;;;;;;;2222380;59;1201;-57
2023/02/14 00:40:25;;;;;;;;;;;;;;;;;;2221227;58;1332;-56
2023/02/14 00:42:55;;;;;;;;;;;;;;;;;;2222189;66;1124;-57
2023/02/14 00:45:25;;;;;;;;;;;;;;;;;;2222598;66;982;-55
2023/02/14 00:47:55;;;;;;;;;;;;;;;;;;2222130;66;1174;-56
2023/02/14 00:50:26;;;;;;;;;;;;;;;;;;2222522;66;1143;-55
2023/02/14 00:52:56;;;;;;;;;;;;;;;;;;2221097;58;1947;-56
2023/02/14 00:55:26;;;;;;;;;;;;;;;;;;2222890;66;1123;-55
2023/02/14 00:57:56;;;;;;;;;;;;;;;;;;2222725;59;1284;-55
2023/02/14 01:00:27;;;;;;;;;;;;;;;;;;2222267;58;2171;-55
2023/02/14 01:02:57;;;;;;;;;;;;;;;;;;2222471;66;1034;-56
2023/02/14 01:05:27;;;;;;;;;;;;;;;;;;2222664;66;1065;-56
2023/02/14 01:07:57;;;;;;;;;;;;;;;;;;2222797;66;1258;-55
2023/02/14 01:10:27;;;;;;;;;;;;;;;;;;2222395;58;1241;-56
2023/02/14 01:12:57;;;;;;;;;;;;;;;;;;2222615;58;1926;-55
2023/02/14 01:15:28;;;;;;;;;;;;;;;;;;2223034;66;1157;-55
2023/02/14 01:17:58;;;;;;;;;;;;;;;;;;2223187;66;1188;-54
2023/02/14 01:20:28;;;;;;;;;;;;;;;;;;2223015;66;1087;-58
2023/02/14 01:22:59;;;;;;;;;;;;;;;;;;2222864;58;2190;-59
2023/02/14 01:25:29;;;;;;;;;;;;;;;;;;2223105;66;1052;-54
2023/02/14 01:27:59;;;;;;;;;;;;;;;;;;2222005;66;1321;-55
2023/02/14 01:30:29;;;;;;;;;;;;;;;;;;2222114;66;1267;-57
2023/02/14 01:32:59;;;;;;;;;;;;;;;;;;2221466;58;1934;-55
2023/02/14 01:35:30;;;;;;;;;;;;;;;;;;2222946;66;1039;-56
2023/02/14 01:38:00;;;;;;;;;;;;;;;;;;2222459;66;1193;-57
2023/02/14 01:40:30;;;;;;;;;;;;;;;;;;2222998;58;1377;-58
2023/02/14 01:43:00;;;;;;;;;;;;;;;;;;2222062;66;2026;-56
2023/02/14 01:45:31;;;;;;;;;;;;;;;;;;2222252;58;2019;-57
2023/02/14 01:48:01;;;;;;;;;;;;;;;;;;2222592;59;1206;-57
2023/02/14 01:50:33;;;;;;;;;;;;;;;;;;2221979;66;1029;-59
2023/02/14 01:53:04;;;;;;;;;;;;;;;;;;2222271;58;1932;-58
2023/02/14 01:55:57;;;;;;;;;;;;;;;;;;2222485;66;1047;-58
2023/02/14 01:58:28;;;;;;;;;;;;;;;;;;2221162;66;1233;-56
2023/02/14 02:00:58;;;;;;;;;;;;;;;;;;2221941;58;2178;-56
2023/02/14 02:03:40;;;;;;;;;;;;;;;;;;2222131;66;1338;-57
2023/02/14 02:06:19;;;;;;;;;;;;;;;;;;2222095;59;1405;-58
2023/02/14 02:09:02;;;;;;;;;;;;;;;;;;2222022;58;2363;-57
2023/02/14 02:11:32;;;;;;;;;;;;;;;;;;2222302;58;1981;-56
2023/02/14 02:14:03;;;;;;;;;;;;;;;;;;2223605;66;1131;-57
2023/02/14 02:16:43;;;;;;;;;;;;;;;;;;2222108;66;1211;-57
2023/02/14 02:19:32;;;;;;;;;;;;;;;;;;2222314;66;1111;-55
2023/02/14 02:22:20;;;;;;;;;;;;;;;;;;2222277;58;2253;-55
2023/02/14 02:25:09;;;;;;;;;;;;;;;;;;2222363;66;1201;-56
2023/02/14 02:27:58;;;;;;;;;;;;;;;;;;2222022;66;1126;-56
2023/02/14 02:30:34;;;;;;;;;;;;;;;;;;2222476;58;2140;-59
2023/02/14 02:33:22;;;;;;;;;;;;;;;;;;2222114;66;1933;-54
2023/02/14 02:36:05;;;;;;;;;;;;;;;;;;2223005;66;1168;-54
2023/02/14 02:38:35;;;;;;;;;;;;;;;;;;2221808;66;1002;-57
2023/02/14 02:41:13;;;;;;;;;;;;;;;;;;2222296;58;1353;-59
2023/02/14 02:43:49;;;;;;;;;;;;;;;;;;2222417;66;1249;-55
2023/02/14 02:53:01;;;;;;;;;;;;;;;;;;2222066;66;1051;-58
2023/02/14 02:54:59;;;;;;;;;;;;;;;;;;2222063;66;1580;-56
2023/02/14 02:57:34;;;;;;;;;;;;;;;;;;2221528;66;1182;-55
2023/02/14 03:00:04;;;;;;;;;;;;;;;;;;2221914;66;1222;-55
2023/02/14 03:04:46;;;;;;;;;;;;;;;;;;2222491;58;2458;-54
2023/02/14 03:05:27;;;;;;;;;;;;;;;;;;2221931;66;1648;-55
2023/02/14 03:07:57;;;;;;;;;;;;;;;;;;2222768;66;1209;-56
2023/02/14 03:10:29;;;;;;;;;;;;;;;;;;2222057;58;1229;-56
2023/02/14 03:12:59;;;;;;;;;;;;;;;;;;2222253;58;1936;-55
2023/02/14 03:15:29;;;;;;;;;;;;;;;;;;2222153;66;1049;-55
2023/02/14 03:18:19;;;;;;;;;;;;;;;;;;2222826;66;1197;-57
2023/02/14 03:21:05;;;;;;;;;;;;;;;;;;2222900;66;1085;-57
2023/02/14 03:23:37;;;;;;;;;;;;;;;;;;2222378;58;2264;-54
2023/02/14 03:26:13;;;;;;;;;;;;;;;;;;2222435;66;1238;-58
2023/02/14 03:28:49;;;;;;;;;;;;;;;;;;2222761;66;1086;-54
2023/02/14 03:31:27;;;;;;;;;;;;;;;;;;2221894;58;1963;-54
2023/02/14 03:33:58;;;;;;;;;;;;;;;;;;2218913;66;1463;-57
2023/02/14 03:36:40;;;;;;;;;;;;;;;;;;2219255;59;1628;-56
2023/02/14 03:39:10;;;;;;;;;;;;;;;;;;2221692;66;1222;-56
2023/02/14 03:41:42;;;;;;;;;;;;;;;;;;2222832;58;1271;-55
2023/02/14 03:44:13;;;;;;;;;;;;;;;;;;2222153;66;1179;-54
2023/02/14 03:46:53;;;;;;;;;;;;;;;;;;2222195;58;1919;-58
2023/02/14 03:49:25;;;;;;;;;;;;;;;;;;2222722;58;1986;-56
2023/02/14 03:51:56;;;;;;;;;;;;;;;;;;2221554;58;1927;-56
2023/02/14 03:54:26;;;;;;;;;;;;;;;;;;2223535;58;1301;-59
2023/02/14 03:56:59;;;;;;;;;;;;;;;;;;2222705;58;1741;-55
2023/02/14 03:59:29;;;;;;;;;;;;;;;;;;2222353;66;1172;-55
2023/02/14 04:02:00;;;;;;;;;;;;;;;;;;2222031;66;2230;-55
2023/02/14 04:04:31;;;;;;;;;;;;;;;;;;2223296;58;1727;-55
2023/02/14 04:07:11;;;;;;;;;;;;;;;;;;2223157;66;1303;-54
2023/02/14 04:09:41;;;;;;;;;;;;;;;;;;2223136;58;1208;-54
2023/02/14 04:12:12;;;;;;;;;;;;;;;;;;2223410;58;1935;-54
2023/02/14 04:14:42;;;;;;;;;;;;;;;;;;2223394;66;1048;-58
2023/02/14 04:20:02;;;;;;;;;;;;;;;;;;2222808;66;1319;-57
2023/02/14 04:22:32;;;;;;;;;;;;;;;;;;2223851;58;2204;-55
2023/02/14 04:25:02;;;;;;;;;;;;;;;;;;2222935;66;1146;-58
2023/02/14 04:27:32;;;;;;;;;;;;;;;;;;2223006;66;1272;-55
2023/02/14 04:30:03;;;;;;;;;;;;;;;;;;2222293;66;1403;-56
2023/02/14 04:32:33;;;;;;;;;;;;;;;;;;2223420;66;1936;-56
2023/02/14 04:35:03;;;;;;;;;;;;;;;;;;2223139;66;1195;-55
2023/02/14 04:37:34;;;;;;;;;;;;;;;;;;2222731;66;1409;-56
2023/02/14 04:40:04;;;;;;;;;;;;;;;;;;2223309;66;1328;-55
2023/02/14 04:42:34;;;;;;;;;;;;;;;;;;2223544;58;1400;-56
2023/02/14 04:45:05;;;;;;;;;;;;;;;;;;2223509;66;1221;-58
2023/02/14 04:47:35;;;;;;;;;;;;;;;;;;2223422;66;1276;-58
2023/02/14 04:50:05;;;;;;;;;;;;;;;;;;2222755;66;1095;-54
2023/02/14 04:52:35;;;;;;;;;;;;;;;;;;2219906;59;2006;-57
2023/02/14 04:55:06;;;;;;;;;;;;;;;;;;2223447;66;1040;-56
2023/02/14 04:57:36;;;;;;;;;;;;;;;;;;2223211;66;1224;-57
2023/02/14 05:00:07;;;;;;;;;;;;;;;;;;2222959;66;1203;-55
2023/02/14 05:02:37;;;;;;;;;;;;;;;;;;2223446;58;2320;-59
2023/02/14 05:05:07;;;;;;;;;;;;;;;;;;2222861;66;1171;-56
2023/02/14 05:07:37;;;;;;;;;;;;;;;;;;2223341;66;1256;-56
2023/02/14 05:10:08;;;;;;;;;;;;;;;;;;2222914;58;1228;-56
2023/02/14 05:12:38;;;;;;;;;;;;;;;;;;2222318;58;1948;-57
2023/02/14 05:15:08;;;;;;;;;;;;;;;;;;2223618;66;1199;-56
2023/02/14 05:17:38;;;;;;;;;;;;;;;;;;2222887;66;1247;-56
2023/02/14 05:20:09;;;;;;;;;;;;;;;;;;2222670;66;1285;-56
2023/02/14 05:22:39;;;;;;;;;;;;;;;;;;2223043;58;2226;-57
2023/02/14 05:25:09;;;;;;;;;;;;;;;;;;2223302;66;1049;-57
2023/02/14 05:27:39;;;;;;;;;;;;;;;;;;2222417;66;1122;-55
2023/02/14 05:30:10;;;;;;;;;;;;;;;;;;2222629;66;1388;-56
2023/02/14 05:32:40;;;;;;;;;;;;;;;;;;2221665;58;2050;-57
2023/02/14 05:35:10;;;;;;;;;;;;;;;;;;2222644;66;1063;-56
2023/02/14 05:37:40;;;;;;;;;;;;;;;;;;2222903;66;1226;-54
2023/02/14 05:40:12;;;;;;;;;;;;;;;;;;2222263;66;1024;-55
2023/02/14 05:42:43;;;;;;;;;;;;;;;;;;2223668;58;1746;-56
2023/02/14 05:45:13;;;;;;;;;;;;;;;;;;2220351;66;1561;-55
2023/02/14 05:47:43;;;;;;;;;;;;;;;;;;2222972;66;1107;-56
2023/02/14 05:50:13;;;;;;;;;;;;;;;;;;2223091;66;1101;-54
2023/02/14 05:52:44;;;;;;;;;;;;;;;;;;2222950;58;1998;-58
2023/02/14 05:55:14;;;;;;;;;;;;;;;;;;2222779;66;1088;-55
2023/02/14 05:57:44;;;;;;;;;;;;;;;;;;2223735;66;1269;-54
2023/02/14 06:00:14;;;;;;;;;;;;;;;;;;2224427;66;994;-57
2023/02/14 06:02:45;;;;;;;;;;;;;;;;;;2222506;58;2082;-57
2023/02/14 06:05:17;;;;;;;;;;;;;;;;;;2223594;66;1122;-56
2023/02/14 06:07:49;;;;;;;;;;;;;;;;;;2223728;66;1243;-55
2023/02/14 06:10:20;;;;;;;;;;;;;;;;;;2223631;66;1206;-58
2023/02/14 06:12:50;;;;;;;;;;;;;;;;;;2223126;58;1940;-56
2023/02/14 06:15:20;;;;;;;;;;;;;;;;;;2223440;66;1081;-56
2023/02/14 06:17:51;;;;;;;;;;;;;;;;;;2222595;66;1266;-55
2023/02/14 06:20:22;;;;;;;;;;;;;;;;;;2224533;66;1045;-56
2023/02/14 06:22:53;;;;;;;;;;;;;;;;;;2222717;58;2376;-56
2023/02/14 06:25:23;;;;;;;;;;;;;;;;;;2223507;66;1271;-54
2023/02/14 06:27:56;;;;;;;;;;;;;;;;;;2222912;66;1230;-54
2023/02/14 06:30:27;;;;;;;;;;;;;;;;;;2223906;58;1325;-58
2023/02/14 06:32:57;;;;;;;;;;;;;;;;;;2222817;66;1931;-55
2023/02/14 06:35:27;;;;;;;;;;;;;;;;;;2224089;66;1039;-56
2023/02/14 06:37:57;;;;;;;;;;;;;;;;;;2223175;66;1222;-57
2023/02/14 06:40:27;;;;;;;;;;;;;;;;;;2223665;58;1301;-56
2023/02/14 06:42:58;;;;;;;;;;;;;;;;;;2223841;66;1183;-58
2023/02/14 06:45:28;;;;;;;;;;;;;;;;;;2223826;66;1085;-57
2023/02/14 06:47:59;;;;;;;;;;;;;;;;;;2222494;58;2034;-58
2023/02/14 06:50:29;;;;;;;;;;;;;;;;;;2221991;58;1285;-57
2023/02/14 06:52:59;;;;;;;;;;;;;;;;;;2222449;58;2005;-55
2023/02/14 06:55:29;;;;;;;;;;;;;;;;;;2224822;58;2039;-55
2023/02/14 06:57:59;;;;;;;;;;;;;;;;;;2224661;66;1193;-55
2023/02/14 07:00:29;;;;;;;;;;;;;;;;;;2224622;58;2228;-58
2023/02/14 07:03:00;;;;;;;;;;;;;;;;;;2224728;58;1132;-56
2023/02/14 07:05:30;;;;;;;;;;;;;;;;;;2224934;58;2001;-60
2023/02/14 07:08:01;;;;;;;;;;;;;;;;;;2225248;66;1222;-55
2023/02/14 07:10:32;;;;;;;;;;;;;;;;;;2224829;58;1922;-57
2023/02/14 07:13:03;;;;;;;;;;;;;;;;;;2223870;58;1933;-57
2023/02/14 07:15:33;;;;;;;;;;;;;;;;;;2224442;58;2047;-59
2023/02/14 07:18:03;;;;;;;;;;;;;;;;;;2224756;66;1216;-56
2023/02/14 07:20:33;;;;;;;;;;;;;;;;;;2223696;58;2042;-54
2023/02/14 07:23:04;;;;;;;;;;;;;;;;;;2225268;58;2272;-54
2023/02/14 07:25:34;;;;;;;;;;;;;;;;;;2223103;58;1951;-56
2023/02/14 07:28:04;;;;;;;;;;;;;;;;;;2224196;66;1248;-57
2023/02/14 07:30:34;;;;;;;;;;;;;;;;;;2224257;58;1888;-56
2023/02/14 07:33:04;;;;;;;;;;;;;;;;;;2224816;66;1945;-58
2023/02/14 07:35:35;;;;;;;;;;;;;;;;;;2222603;58;1956;-57
2023/02/14 07:38:05;;;;;;;;;;;;;;;;;;2223859;66;1095;-55
2023/02/14 07:40:35;;;;;;;;;;;;;;;;;;2223007;58;2015;-55
2023/02/14 07:43:06;;;;;;;;;;;;;;;;;;2223342;58;1335;-58
2023/02/14 07:45:37;;;;;;;;;;;;;;;;;;2223983;58;2298;-56
2023/02/14 07:48:07;;;;;;;;;;;;;;;;;;2223704;66;1190;-56
2023/02/14 07:50:37;;;;;;;;;;;;;;;;;;2223952;58;1857;-58
2023/02/14 07:53:07;;;;;;;;;;;;;;;;;;2224520;58;1952;-55
2023/02/14 07:55:39;;;;;;;;;;;;;;;;;;2222163;58;2277;-57
2023/02/14 07:58:09;;;;;;;;;;;;;;;;;;2222685;58;2134;-57
2023/02/14 08:00:39;;;;;;;;;;;;;;;;;;2223371;58;2030;-58
2023/02/14 08:03:09;;;;;;;;;;;;;;;;;;2221975;58;2390;-55
2023/02/14 08:05:40;;;;;;;;;;;;;;;;;;2223853;66;1336;-57
2023/02/14 08:08:10;;;;;;;;;;;;;;;;;;2223177;58;1946;-57
2023/02/14 08:10:40;;;;;;;;;;;;;;;;;;2224758;58;1320;-55
2023/02/14 08:13:10;;;;;;;;;;;;;;;;;;2222578;58;2002;-57
2023/02/14 08:18:33;;;;;;;;;;;;;;;;;;2222977;58;2280;-58
2023/02/14 08:21:05;;;;;;;;;;;;;;;;;;2223436;58;2095;-56
2023/02/14 08:23:35;;;;;;;;;;;;;;;;;;2223323;58;2286;-57
2023/02/14 08:26:05;;;;;;;;;;;;;;;;;;2224438;66;1263;-56
2023/02/14 08:28:36;;;;;;;;;;;;;;;;;;2223979;58;1953;-55
2023/02/14 08:31:06;;;;;;;;;;;;;;;;;;2223374;58;1912;-57
2023/02/14 08:33:36;;;;;;;;;;;;;;;;;;2222856;58;2312;-58
2023/02/14 08:36:06;;;;;;;;;;;;;;;;;;2224445;66;1245;-58
2023/02/14 08:38:36;;;;;;;;;;;;;;;;;;2223790;58;2064;-55
2023/02/14 08:41:07;;;;;;;;;;;;;;;;;;2224374;58;1398;-55
2023/02/14 08:43:37;;;;;;;;;;;;;;;;;;2223794;58;2046;-58
2023/02/14 08:46:07;;;;;;;;;;;;;;;;;;2224464;66;1179;-58
2023/02/14 08:48:37;;;;;;;;;;;;;;;;;;2223699;58;2006;-58
2023/02/14 08:51:08;;;;;;;;;;;;;;;;;;2224130;58;1280;-55
2023/02/14 08:53:38;;;;;;;;;;;;;;;;;;2223081;58;2015;-56
2023/02/14 08:56:09;;;;;;;;;;;;;;;;;;2223419;58;2015;-57
2023/02/14 08:58:40;;;;;;;;;;;;;;;;;;2222882;58;1921;-57
2023/02/14 09:01:10;;;;;;;;;;;;;;;;;;2221952;58;1897;-57
2023/02/14 09:03:41;;;;;;;;;;;;;;;;;;2221107;58;1915;-64
2023/02/14 09:08:45;;;;;;;;;;;;;;;;;;2197887;58;15929;-68
2023/02/14 09:13:47;;;;;;;;;;;;;;;;;;2221573;58;2309;-61
2023/02/14 09:16:17;;;;;;;;;;;;;;;;;;2204320;58;108433;-65
2023/02/14 09:18:48;;;;;;;;;;;;;;;;;;2037818;58;10744650;-59
2023/02/14 09:21:19;;;;;;;;;;;;;;;;;;2156384;66;1081;-64
2023/02/14 09:23:50;;;;;;;;;;;;;;;;;;2096326;58;2081;-64
2023/02/14 09:26:30;;;;;;;;;;;;;;;;;;2058704;58;2656;-61
2023/02/14 09:29:07;;;;;;;;;;;;;;;;;;2190226;58;2251;-65
2023/02/14 09:31:37;;;;;;;;;;;;;;;;;;2133638;58;1994;-66
2023/02/14 09:36:57;;;;;;;;;;;;;;;;;;2222004;58;1992;-65
2023/02/14 09:39:27;;;;;;;;;;;;;;;;;;2254724;53;3584;-58
2023/02/14 09:42:02;;;;;;;;;;;;;;;;;;2205430;59;1346;-59
2023/02/14 09:44:34;;;;;;;;;;;;;;;;;;2206618;59;1365;-59
2023/02/14 09:47:05;;;;;;;;;;;;;;;;;;2206877;67;1081;-58
2023/02/14 09:49:36;;;;;;;;;;;;;;;;;;2206133;67;1668;-56
2023/02/14 09:52:08;;;;;;;;;;;;;;;;;;2206451;59;1923;-57
2023/02/14 09:54:38;;;;;;;;;;;;;;;;;;2206883;53;3783;-59
2023/02/14 09:57:27;;;;;;;;;;;;;;;;;;2197464;59;1294;-64
2023/02/14 10:00:04;;;;;;;;;;;;;;;;;;2201295;59;1969;-64
2023/02/14 10:02:34;;;;;;;;;;;;;;;;;;2202118;67;1069;-60
2023/02/14 10:05:05;;;;;;;;;;;;;;;;;;2200553;59;1970;-65
2023/02/14 10:07:41;;;;;;;;;;;;;;;;;;2200211;59;1884;-57
2023/02/14 10:10:29;;;;;;;;;;;;;;;;;;2200860;59;1911;-57
2023/02/14 10:13:26;;;;;;;;;;;;;;;;;;2199199;59;2478;-58
2023/02/14 10:19:37;;;;;;;;;;;;;;;;;;;;;
2023/02/14 10:22:22;;;;;;;;;;;;;;;;;;2199683;59;2260;-64
2023/02/14 10:25:03;;;;;;;;;;;;;;;;;;2198001;67;1231;-65
2023/02/14 10:27:39;;;;;;;;;;;;;;;;;;2198478;67;1056;-62
2023/02/14 10:30:23;;;;;;;;;;;;;;;;;;2198840;59;2033;-64
2023/02/14 10:33:30;;;;;;;;;;;;;;;;;;2197020;59;2040;-64
2023/02/14 10:36:03;;;;;;;;;;;;;;;;;;2198517;59;1986;-60
2023/02/14 10:38:43;;;;;;;;;;;;;;;;;;2197790;67;1078;-61
2023/02/14 10:41:35;;;;;;;;;;;;;;;;;;2198376;59;1891;-65
2023/02/14 10:44:24;;;;;;;;;;;;;;;;;;2197250;67;1272;-65
2023/02/14 10:47:11;;;;;;;;;;;;;;;;;;2198290;59;2069;-65
2023/02/14 10:53:07;;;;;;;;;;;;;;;;;;2196599;59;2129;-57
2023/02/14 10:56:11;;;;;;;;;;;;;;;;;;2201828;67;1218;-60
2023/02/14 11:02:40;;;;;;;;;;;;;;;;;;2184623;67;1013;-60
2023/02/14 11:05:21;;;;;;;;;;;;;;;;;;2185834;67;1245;-59
2023/02/14 11:08:14;;;;;;;;;;;;;;;;;;2199657;67;1824;-58
2023/02/14 11:21:35;;;;;;;;;;;;;;;;;;;;;
2023/02/14 11:24:54;;;;;;;;;;;;;;;;;;2202302;59;1213;-58
2023/02/14 11:27:25;;;;;;;;;;;;;;;;;;2200183;67;1101;-57
2023/02/14 11:29:55;;;;;;;;;;;;;;;;;;2201180;67;1045;-58
2023/02/14 11:32:40;;;;;;;;;;;;;;;;;;;;;
2023/02/14 11:35:25;;;;;;;;;;;;;;;;;;2200715;67;1030;-58
2023/02/14 11:44:52;;;;;;;;;;;;;;;;;;2200419;67;1188;-59
2023/02/14 11:47:40;;;;;;;;;;;;;;;;;;2202159;59;1462;-57
2023/02/14 11:50:22;;;;;;;;;;;;;;;;;;2201581;59;2077;-59
2023/02/14 11:52:53;;;;;;;;;;;;;;;;;;2202059;59;1996;-56
2023/02/14 11:55:39;;;;;;;;;;;;;;;;;;2200777;59;2303;-54
2023/02/14 11:58:17;;;;;;;;;;;;;;;;;;2202022;67;1126;-58
2023/02/14 12:04:03;;;;;;;;;;;;;;;;;;2202430;67;1194;-54
2023/02/14 12:06:47;;;;;;;;;;;;;;;;;;2201547;67;1192;-54
2023/02/14 12:09:26;;;;;;;;;;;;;;;;;;2200712;59;1890;-55
2023/02/14 12:18:44;;;;;;;;;;;;;;;;;;2201574;59;954;-54
2023/02/14 12:24:55;;;;;;;;;;;;;;;;;;;;;
2023/02/14 12:27:27;;;;;;;;;;;;;;;;;;2200148;59;1925;-55
2023/02/14 12:33:19;;;;;;;;;;;;;;;;;;2201248;59;2101;-55
2023/02/14 12:39:34;;;;;;;;;;;;;;;;;;2202401;59;2012;-55
2023/02/14 12:46:27;;;;;;;;;;;;;;;;;;;;;
2023/02/14 12:52:47;;;;;;;;;;;;;;;;;;2198590;59;1993;-55
2023/02/14 12:56:09;;;;;;;;;;;;;;;;;;;;;
2023/02/14 12:59:25;;;;;;;;;;;;;;;;;;;;;
2023/02/14 13:02:31;;;;;;;;;;;;;;;;;;;;;
2023/02/14 13:08:48;;;;;;;;;;;;;;;;;;2201609;59;1032;-59
2023/02/14 13:15:05;;;;;;;;;;;;;;;;;;2201003;59;2623;-56
2023/02/14 13:17:46;;;;;;;;;;;;;;;;;;2201672;59;2476;-58
2023/02/14 13:23:44;;;;;;;;;;;;;;;;;;2199869;59;2029;-59
2023/02/14 13:26:16;;;;;;;;;;;;;;;;;;2202517;59;2126;-60
2023/02/14 13:29:02;;;;;;;;;;;;;;;;;;2201014;59;1273;-59
2023/02/14 13:35:02;;;;;;;;;;;;;;;;;;2197521;67;1753;-56
2023/02/14 13:37:33;;;;;;;;;;;;;;;;;;2200958;59;1922;-57
2023/02/14 13:40:07;;;;;;;;;;;;;;;;;;2201909;67;1142;-59
2023/02/14 13:42:50;;;;;;;;;;;;;;;;;;2200897;59;1986;-62
2023/02/14 13:45:38;;;;;;;;;;;;;;;;;;2202930;67;1083;-56
2023/02/14 13:55:19;;;;;;;;;;;;;;;;;;2184700;59;2329;-63
2023/02/14 13:57:59;;;;;;;;;;;;;;;;;;2182330;59;2035;-62
2023/02/14 14:01:04;;;;;;;;;;;;;;;;;;2198756;59;2235;-58
2023/02/14 14:03:53;;;;;;;;;;;;;;;;;;;;;
2023/02/14 14:07:00;;;;;;;;;;;;;;;;;;2201065;59;1993;-53
2023/02/14 14:10:02;;;;;;;;;;;;;;;;;;2202015;59;1268;-60
2023/02/14 14:12:58;;;;;;;;;;;;;;;;;;2200909;59;2028;-59
2023/02/14 14:16:27;;;;;;;;;;;;;;;;;;2198870;67;2659;-65
2023/02/14 14:19:25;;;;;;;;;;;;;;;;;;2201356;60;2433;-58
2023/02/14 14:21:59;;;;;;;;;;;;;;;;;;2200558;59;2298;-57
2023/02/14 14:31:26;;;;;;;;;;;;;;;;;;2200792;59;1936;-57
2023/02/14 14:34:58;;;;;;;;;;;;;;;;;;2201104;67;1280;-57
2023/02/14 14:37:26;;;;;;;;;;;;;;;;;;2201555;67;1706;-55
2023/02/14 14:40:03;;;;;;;;;;;;;;;;;;2201153;59;1509;-57
2023/02/14 14:42:38;;;;;;;;;;;;;;;;;;2200322;59;2013;-57
2023/02/14 14:45:21;;;;;;;;;;;;;;;;;;2202036;59;2041;-59
2023/02/14 14:47:57;;;;;;;;;;;;;;;;;;2201172;59;2020;-60
2023/02/14 14:50:28;;;;;;;;;;;;;;;;;;2202180;59;2302;-64
2023/02/14 14:53:02;;;;;;;;;;;;;;;;;;2203799;59;2002;-64
2023/02/14 14:55:53;;;;;;;;;;;;;;;;;;2199845;59;1985;-57
2023/02/14 14:58:52;;;;;;;;;;;;;;;;;;2199233;59;1993;-55
2023/02/14 15:14:58;;;;;;;;;;;;;;;;;;2202052;59;2099;-57
2023/02/14 15:17:28;;;;;;;;;;;;;;;;;;2202881;53;2299;-61
2023/02/14 15:19:59;;;;;;;;;;;;;;;;;;2192678;59;2455;-61
2023/02/14 15:22:40;;;;;;;;;;;;;;;;;;2200235;59;2234;-71
2023/02/14 15:25:12;;;;;;;;;;;;;;;;;;2202006;59;1372;-61
2023/02/14 15:27:42;;;;;;;;;;;;;;;;;;2198986;59;2032;-61
2023/02/14 15:30:18;;;;;;;;;;;;;;;;;;2201266;59;2047;-59
2023/02/14 15:32:49;;;;;;;;;;;;;;;;;;2200425;59;2034;-59
2023/02/14 15:35:23;;;;;;;;;;;;;;;;;;2201211;59;1975;-57
2023/02/14 15:37:54;;;;;;;;;;;;;;;;;;2204479;59;1993;-57
2023/02/14 15:40:29;;;;;;;;;;;;;;;;;;2201921;59;1267;-57
2023/02/14 15:43:12;;;;;;;;;;;;;;;;;;2203762;59;2087;-58
2023/02/14 15:45:43;;;;;;;;;;;;;;;;;;2201927;67;1260;-59
2023/02/14 15:48:22;;;;;;;;;;;;;;;;;;2201175;59;2114;-57
2023/02/14 15:50:53;;;;;;;;;;;;;;;;;;2203932;59;1945;-57
2023/02/14 15:53:40;;;;;;;;;;;;;;;;;;2204055;59;2266;-57
2023/02/14 15:56:10;;;;;;;;;;;;;;;;;;2205026;67;1185;-55
2023/02/14 15:58:41;;;;;;;;;;;;;;;;;;2204287;59;2033;-58
2023/02/14 16:01:11;;;;;;;;;;;;;;;;;;2202270;59;1258;-56
2023/02/14 16:03:42;;;;;;;;;;;;;;;;;;2200992;59;1949;-57
2023/02/14 16:06:14;;;;;;;;;;;;;;;;;;2204841;67;1248;-57
2023/02/14 16:08:45;;;;;;;;;;;;;;;;;;2200184;59;2081;-57
2023/02/14 16:11:33;;;;;;;;;;;;;;;;;;2201690;59;1978;-59
2023/02/14 16:14:19;;;;;;;;;;;;;;;;;;2203346;59;1962;-59
2023/02/14 16:17:17;;;;;;;;;;;;;;;;;;2202890;59;1501;-55
2023/02/14 16:19:47;;;;;;;;;;;;;;;;;;2202444;59;2683;-58
2023/02/14 16:22:24;;;;;;;;;;;;;;;;;;2204155;59;2229;-56
2023/02/14 16:24:55;;;;;;;;;;;;;;;;;;2202220;59;2066;-55
2023/02/14 16:27:25;;;;;;;;;;;;;;;;;;2204523;67;1244;-56
2023/02/14 16:29:55;;;;;;;;;;;;;;;;;;2203576;59;2021;-57
2023/02/14 16:32:25;;;;;;;;;;;;;;;;;;2201599;59;2049;-57
2023/02/14 16:34:56;;;;;;;;;;;;;;;;;;2203919;59;2018;-55
2023/02/14 16:37:29;;;;;;;;;;;;;;;;;;2203756;59;1950;-54
2023/02/14 16:40:00;;;;;;;;;;;;;;;;;;2203678;59;1940;-58
2023/02/14 16:42:31;;;;;;;;;;;;;;;;;;2204634;59;1580;-60
2023/02/14 16:45:01;;;;;;;;;;;;;;;;;;2203046;59;1959;-58
2023/02/14 16:47:32;;;;;;;;;;;;;;;;;;2204316;67;1199;-55
2023/02/14 16:50:02;;;;;;;;;;;;;;;;;;2203421;59;2149;-60
2023/02/14 16:52:32;;;;;;;;;;;;;;;;;;2204203;59;1936;-58
2023/02/14 16:55:02;;;;;;;;;;;;;;;;;;2202082;59;1926;-60
2023/02/14 16:57:34;;;;;;;;;;;;;;;;;;2204238;67;1171;-60
2023/02/14 17:00:05;;;;;;;;;;;;;;;;;;2198047;59;1939;-58
2023/02/14 17:02:35;;;;;;;;;;;;;;;;;;2204040;67;1057;-57
2023/02/14 17:05:05;;;;;;;;;;;;;;;;;;2200584;59;2009;-60
2023/02/14 17:07:36;;;;;;;;;;;;;;;;;;2204194;59;1320;-60
2023/02/14 17:10:06;;;;;;;;;;;;;;;;;;2204001;59;2112;-59
2023/02/14 17:12:38;;;;;;;;;;;;;;;;;;2200628;59;1928;-56
2023/02/14 17:15:10;;;;;;;;;;;;;;;;;;2200776;59;1932;-57
2023/02/14 17:17:41;;;;;;;;;;;;;;;;;;2200894;59;2132;-65
2023/02/14 17:20:11;;;;;;;;;;;;;;;;;;2203552;59;2529;-64
2023/02/14 17:22:41;;;;;;;;;;;;;;;;;;2203501;59;2313;-64
2023/02/14 17:25:11;;;;;;;;;;;;;;;;;;2204410;59;1261;-57
2023/02/14 17:27:43;;;;;;;;;;;;;;;;;;2203687;59;2021;-58
2023/02/14 17:30:13;;;;;;;;;;;;;;;;;;2198533;59;2026;-58
2023/02/14 17:32:43;;;;;;;;;;;;;;;;;;2199898;59;2228;-59
2023/02/14 17:35:17;;;;;;;;;;;;;;;;;;2204995;59;1897;-63
2023/02/14 17:37:47;;;;;;;;;;;;;;;;;;2200784;59;2109;-58
2023/02/14 17:40:17;;;;;;;;;;;;;;;;;;2203703;59;1833;-58
2023/02/14 17:42:47;;;;;;;;;;;;;;;;;;2203997;59;1940;-59
2023/02/14 17:45:18;;;;;;;;;;;;;;;;;;2205058;59;2388;-59
2023/02/14 17:47:48;;;;;;;;;;;;;;;;;;2203386;59;1978;-56
2023/02/14 17:50:18;;;;;;;;;;;;;;;;;;2205230;59;2159;-59
2023/02/14 17:52:52;;;;;;;;;;;;;;;;;;2203963;59;1944;-60
2023/02/14 17:55:22;;;;;;;;;;;;;;;;;;2205355;67;1109;-56
2023/02/14 17:57:52;;;;;;;;;;;;;;;;;;2204871;59;2009;-59
2023/02/14 18:00:23;;;;;;;;;;;;;;;;;;2204832;67;1210;-58
2023/02/14 18:02:53;;;;;;;;;;;;;;;;;;2204535;59;2445;-57
2023/02/14 18:05:23;;;;;;;;;;;;;;;;;;2204943;67;1031;-57
2023/02/14 18:07:53;;;;;;;;;;;;;;;;;;2204439;59;1952;-59
2023/02/14 18:10:23;;;;;;;;;;;;;;;;;;2206335;59;1174;-59
2023/02/14 18:12:53;;;;;;;;;;;;;;;;;;2204608;59;2029;-60
2023/02/14 18:15:26;;;;;;;;;;;;;;;;;;2204945;67;1894;-57
2023/02/14 18:17:56;;;;;;;;;;;;;;;;;;2201035;59;1970;-58
2023/02/14 18:20:26;;;;;;;;;;;;;;;;;;2204299;67;2694;-58
2023/02/14 18:22:56;;;;;;;;;;;;;;;;;;2200651;59;2281;-59
2023/02/14 18:25:27;;;;;;;;;;;;;;;;;;2204401;59;1252;-60
2023/02/14 18:27:57;;;;;;;;;;;;;;;;;;2204805;67;1130;-59
2023/02/14 18:30:27;;;;;;;;;;;;;;;;;;2204844;67;996;-59
2023/02/14 18:32:57;;;;;;;;;;;;;;;;;;2204254;67;1988;-59
2023/02/14 18:35:27;;;;;;;;;;;;;;;;;;2205297;67;1265;-58
2023/02/14 18:37:57;;;;;;;;;;;;;;;;;;2204821;67;1219;-59
2023/02/14 18:40:28;;;;;;;;;;;;;;;;;;2205352;59;1218;-60
2023/02/14 18:42:58;;;;;;;;;;;;;;;;;;2205172;59;2430;-62
2023/02/14 18:45:28;;;;;;;;;;;;;;;;;;2204018;59;1968;-63
2023/02/14 18:47:58;;;;;;;;;;;;;;;;;;2201267;59;2075;-62
2023/02/14 18:50:29;;;;;;;;;;;;;;;;;;2204015;59;2396;-63
2023/02/14 18:52:59;;;;;;;;;;;;;;;;;;2204702;59;2008;-63
2023/02/14 18:55:29;;;;;;;;;;;;;;;;;;2204351;59;1929;-62
2023/02/14 18:57:59;;;;;;;;;;;;;;;;;;2204733;59;1975;-61
2023/02/14 19:00:32;;;;;;;;;;;;;;;;;;2204036;59;1985;-62
2023/02/14 19:03:02;;;;;;;;;;;;;;;;;;2204083;67;959;-63
2023/02/14 19:05:32;;;;;;;;;;;;;;;;;;2204154;59;2078;-61
2023/02/14 19:08:04;;;;;;;;;;;;;;;;;;2204523;67;1227;-63
2023/02/14 19:10:36;;;;;;;;;;;;;;;;;;2204481;59;2043;-60
2023/02/14 19:13:06;;;;;;;;;;;;;;;;;;2204817;59;1991;-62
2023/02/14 19:15:36;;;;;;;;;;;;;;;;;;2204269;59;2201;-60
2023/02/14 19:18:06;;;;;;;;;;;;;;;;;;2204353;67;1023;-61
2023/02/14 19:20:36;;;;;;;;;;;;;;;;;;2203379;59;2366;-63
2023/02/14 19:23:07;;;;;;;;;;;;;;;;;;2203384;59;2389;-61
2023/02/14 19:25:37;;;;;;;;;;;;;;;;;;2201511;59;1985;-62
2023/02/14 19:28:08;;;;;;;;;;;;;;;;;;2204222;67;1163;-62
2023/02/14 19:30:38;;;;;;;;;;;;;;;;;;2203930;59;1843;-62
2023/02/14 19:33:08;;;;;;;;;;;;;;;;;;2204701;67;1934;-62
2023/02/14 19:35:38;;;;;;;;;;;;;;;;;;2203803;59;1908;-62
2023/02/14 19:38:08;;;;;;;;;;;;;;;;;;2203989;67;1407;-61
2023/02/14 19:40:42;;;;;;;;;;;;;;;;;;2203694;59;2017;-62
2023/02/14 19:43:12;;;;;;;;;;;;;;;;;;2204217;67;1098;-61
2023/02/14 19:45:42;;;;;;;;;;;;;;;;;;2203621;59;2048;-62
2023/02/14 19:48:12;;;;;;;;;;;;;;;;;;2203576;59;2159;-62
2023/02/14 19:50:42;;;;;;;;;;;;;;;;;;2203202;59;2084;-62
2023/02/14 19:53:13;;;;;;;;;;;;;;;;;;2201003;59;2127;-62